Hollywood, FL

3:51 AM EDT on June 03, 2015 (GMT -0400)
Pembroke Falls | | Change Station
CLOSE
Current Station
Personal Weather Station
Location: Pembroke Pines, FL
Elevation: 7 ft
Nearby Weather Stations

Elev 7 ft 26.03 °N, 80.34 °W | Updated 5 seconds ago

Overcast
Overcast
74.3 °F
Feels Like 75 °F
N
2.5
Wind Variable Wind from NNE
Gusts 2.9 mph

Today
High -- | Low -- °F
--% Chance of Precip.
Yesterday
High -- | Low -- °F
Precip. -- in
6:29 AM 8:09 PM
Full, 100% visible
Pressure 29.94 in
Visibility 10.0 miles
Clouds Few 2000 ft
Mostly Cloudy 6000 ft
Overcast 8000 ft
Heat Index 75 °F
Dew Point 68 °F
Humidity 80%
Rainfall 0.00 in
Snow Depth Not available.
UV 0 out of 12
Pollen 1.10 out of 12
Air Quality Not available.
Flu Activity Sporadic
METAR KFLL 030653Z 35005KT 10SM FEW020 BKN060 OVC080 23/22 A2993 RMK AO2 SLP136 T02330217

More Conditions Fewer Conditions

Pressure 29.94 in
Visibility 10.0 miles
Clouds Few 2000 ft
Mostly Cloudy 6000 ft
Overcast 8000 ft
Heat Index 75 °F
Dew Point 68 °F
Humidity 80%
Rainfall 0.00 in
Snow Depth Not available.
UV 0 out of 12
Pollen 1.10 out of 12
Air Quality Not available.
Flu Activity Sporadic
METAR KFLL 030653Z 35005KT 10SM FEW020 BKN060 OVC080 23/22 A2993 RMK AO2 SLP136 T02330217

More Conditions Fewer Conditions

10-Day Weather Forecast

×

Almanac

Astronomy

Jun. 03, 2015 Rise Set
Actual Time
Civil Twilight
Nautical Twilight
Astronomical Twilight
Moon
Length of Visible Light
Length of Day
Tomorrow will be .
, % of the Moon is Illuminated

Today's Extremes

State Highs State Lows

Community

WunderPhotos

Upload Photos

1,826,187 photos uploaded!

WunderBlogs® & News

Nearby

Air Quality

  Air Quality AQ Index Pollutant
Not available.

Snow Depth

Station Depth Elevation

Earthquake Activity

City Distance Mag. Time & Date
Minimum magnitude displayed is 2.5.

Coastal Water Temperatures

Place Temperature

Stations

Nearby Weather Stations

Station Location Temp. Windchill Dew Point Humidity Wind Precip. Elev Updated Type